Clogher, United Kingdom
Current Conditions -  °F | °C
As of 7:20 PM on Saturday 20 Dec 2014 (Local Time) from EGAA Reporting Station
Broken Clouds Broken Clouds  
Wind Chill:   Ceiling: 1400
Heat Index:   Visibility: 6mi
Dew Point:   Wind: 8mph
Humidity: 100%   Direction: 210°SSW
Pressure: 30.3"   Gusts: NA
Location:  54.41°N, 7.17°W
Report Text: EGAA 201920Z 21007KT 9999 SCT009 BKN014 06/06 Q1026
Loading
Personal Weather Stations






























Interactive Weather Map New forecast layout! Learn more

10-Day Weather Forecast

Advertisements
Track Severe Weather on mobile